createdAt,value
2022-12-01T00:01:20.268Z,34.10
2022-12-01T00:03:47.526Z,32.67
2022-12-01T00:06:17.887Z,35.25
2022-12-01T00:09:04.913Z,33.40
2022-12-01T00:11:33.554Z,34.10
2022-12-01T00:14:01.494Z,33.13
2022-12-01T00:16:28.904Z,33.63
2022-12-01T00:18:56.212Z,33.90
2022-12-01T00:21:24.439Z,33.97
2022-12-01T00:23:54.243Z,33.70
2022-12-01T00:26:22.210Z,34.08
2022-12-01T00:28:57.508Z,32.38
2022-12-01T00:31:25.497Z,32.78
2022-12-01T00:33:53.023Z,34.70
2022-12-01T00:36:21.578Z,34.97
2022-12-01T00:38:52.104Z,33.83
2022-12-01T00:41:19.649Z,34.15
2022-12-01T00:43:47.630Z,35.70
2022-12-01T00:46:15.266Z,35.17
2022-12-01T00:48:42.491Z,33.58
2022-12-01T00:51:09.791Z,33.80
2022-12-01T00:53:37.038Z,34.38
2022-12-01T00:56:04.665Z,34.58
2022-12-01T00:58:31.955Z,34.92
2022-12-01T01:01:00.874Z,34.90
2022-12-01T01:03:29.612Z,34.53
2022-12-01T01:05:56.860Z,35.33
2022-12-01T01:08:24.032Z,37.75
2022-12-01T01:10:51.309Z,34.33
2022-12-01T01:13:18.529Z,34.90
2022-12-01T01:15:46.133Z,35.33
2022-12-01T01:18:13.414Z,34.92
2022-12-01T01:20:40.611Z,37.20
2022-12-01T01:23:07.890Z,35.53
2022-12-01T01:25:35.137Z,35.10
2022-12-01T01:28:02.438Z,34.92
2022-12-01T01:30:29.753Z,34.13
2022-12-01T01:32:56.960Z,34.58
2022-12-01T01:35:24.247Z,33.47
2022-12-01T01:37:51.841Z,34.03
2022-12-01T01:40:19.109Z,33.92
2022-12-01T01:42:46.380Z,34.53
2022-12-01T01:45:24.206Z,36.05
2022-12-01T01:47:53.165Z,32.58
2022-12-01T01:50:23.282Z,31.45
2022-12-01T01:53:00.166Z,31.85
2022-12-01T01:55:29.191Z,34.88
2022-12-01T01:57:56.705Z,31.52
2022-12-01T02:00:24.214Z,34.10
2022-12-01T02:02:51.890Z,33.95
2022-12-01T02:05:32.092Z,32.75
2022-12-01T02:10:50.134Z,32.72
2022-12-01T02:13:48.258Z,32.97
2022-12-01T02:16:41.041Z,31.58
2022-12-01T02:19:46.179Z,31.90
2022-12-01T02:22:23.397Z,32.03
2022-12-01T02:24:55.738Z,30.08
2022-12-01T02:27:43.913Z,30.52
2022-12-01T02:30:14.448Z,30.08
2022-12-01T02:33:02.688Z,29.92
2022-12-01T02:35:34.715Z,30.40
2022-12-01T02:38:15.523Z,30.38
2022-12-01T02:41:11.361Z,28.30
2022-12-01T02:43:49.386Z,30.10
2022-12-01T02:46:29.900Z,29.70
2022-12-01T02:48:59.699Z,31.70
2022-12-01T02:51:31.054Z,30.95
2022-12-01T02:53:59.784Z,30.60
2022-12-01T02:56:27.252Z,30.08
2022-12-01T02:58:54.851Z,30.30
2022-12-01T03:01:31.241Z,29.30
2022-12-01T03:04:15.451Z,27.80
2022-12-01T03:07:08.521Z,26.98
2022-12-01T03:09:51.555Z,30.00
2022-12-01T03:12:47.955Z,28.80
2022-12-01T03:15:36.226Z,28.88
2022-12-01T03:18:13.655Z,27.33
2022-12-01T03:20:42.452Z,28.35
2022-12-01T03:23:15.672Z,28.55
2022-12-01T03:25:46.027Z,29.67
2022-12-01T03:28:23.325Z,27.90
2022-12-01T03:30:55.830Z,28.73
2022-12-01T03:33:34.444Z,28.48
2022-12-01T03:36:05.560Z,30.00
2022-12-01T03:38:36.104Z,29.83
2022-12-01T03:41:11.397Z,29.17
2022-12-01T03:43:42.358Z,31.20
2022-12-01T03:46:19.842Z,31.30
2022-12-01T03:48:47.292Z,31.08
2022-12-01T03:51:23.469Z,32.88
2022-12-01T03:53:55.466Z,30.20
2022-12-01T03:56:26.292Z,33.15
2022-12-01T03:58:56.974Z,31.90
2022-12-01T04:01:24.283Z,32.90
2022-12-01T04:03:51.578Z,33.15
2022-12-01T04:06:19.174Z,32.20
2022-12-01T04:08:46.366Z,33.50
2022-12-01T04:11:32.971Z,31.77
2022-12-01T04:14:00.306Z,30.73
2022-12-01T04:16:27.571Z,31.65
2022-12-01T04:18:54.821Z,30.65
2022-12-01T04:21:22.011Z,32.22
2022-12-01T04:24:01.319Z,32.50
2022-12-01T04:26:33.723Z,30.50
2022-12-01T04:29:01.839Z,32.13
2022-12-01T04:31:29.634Z,31.40
2022-12-01T04:33:58.151Z,34.20
2022-12-01T04:36:26.181Z,32.47
2022-12-01T04:38:53.480Z,33.45
2022-12-01T04:41:20.653Z,31.75
2022-12-01T04:43:48.303Z,33.45
2022-12-01T04:46:15.916Z,33.42
2022-12-01T04:48:43.565Z,31.40
2022-12-01T04:51:10.745Z,32.58
2022-12-01T04:53:38.231Z,33.22
2022-12-01T04:56:05.993Z,31.27
2022-12-01T04:58:33.893Z,33.78
2022-12-01T05:01:03.178Z,31.52
2022-12-01T05:03:30.445Z,33.15
2022-12-01T05:06:05.654Z,32.80
2022-12-01T05:08:34.206Z,34.28
2022-12-01T05:11:05.138Z,33.45
2022-12-01T05:13:32.328Z,32.20
2022-12-01T05:16:14.714Z,32.13
2022-12-01T05:18:42.374Z,31.35
2022-12-01T05:21:11.256Z,29.85
2022-12-01T05:23:39.219Z,31.83
2022-12-01T05:26:08.027Z,32.30
2022-12-01T05:28:35.672Z,32.88
2022-12-01T05:31:03.630Z,31.80
2022-12-01T05:33:31.031Z,32.45
2022-12-01T05:35:58.323Z,31.60
2022-12-01T05:38:25.614Z,31.90
2022-12-01T05:40:54.460Z,33.50
2022-12-01T05:43:28.533Z,31.17
2022-12-01T05:45:57.323Z,31.58
2022-12-01T05:48:25.189Z,31.50
2022-12-01T05:50:52.363Z,32.10
2022-12-01T05:53:20.097Z,32.80
2022-12-01T05:55:51.931Z,29.75
2022-12-01T05:58:19.311Z,29.90
2022-12-01T06:00:46.510Z,31.63
2022-12-01T06:03:14.246Z,31.02
2022-12-01T06:05:41.437Z,30.95
2022-12-01T06:08:08.683Z,31.63
2022-12-01T06:10:35.908Z,32.42
2022-12-01T06:13:03.177Z,30.17
2022-12-01T06:15:30.530Z,31.98
2022-12-01T06:18:00.940Z,31.77
2022-12-01T06:20:28.318Z,30.90
2022-12-01T06:22:55.514Z,33.05
2022-12-01T06:25:22.743Z,32.35
2022-12-01T06:27:49.945Z,31.70
2022-12-01T06:30:17.279Z,33.25
2022-12-01T06:32:44.569Z,31.67
2022-12-01T06:35:11.848Z,32.17
2022-12-01T06:37:39.135Z,31.90
2022-12-01T06:40:07.110Z,31.48
2022-12-01T06:42:34.329Z,30.85
2022-12-01T06:45:01.510Z,31.77
2022-12-01T06:47:29.119Z,30.08
2022-12-01T06:49:56.436Z,31.00
2022-12-01T06:52:23.746Z,30.02
2022-12-01T06:54:50.894Z,31.05
2022-12-01T06:57:18.687Z,30.25
2022-12-01T06:59:45.954Z,29.83
2022-12-01T07:02:13.777Z,30.60
2022-12-01T07:04:41.029Z,29.67
2022-12-01T07:07:08.534Z,30.65
2022-12-01T07:09:35.768Z,30.27
2022-12-01T07:12:03.050Z,31.48
2022-12-01T07:14:31.616Z,31.58
2022-12-01T07:17:00.069Z,31.30
2022-12-01T07:19:27.398Z,30.58
2022-12-01T07:21:54.621Z,30.33
2022-12-01T07:24:21.848Z,31.95
2022-12-01T07:26:49.327Z,30.65
2022-12-01T07:29:16.753Z,31.02
2022-12-01T07:31:44.256Z,31.52
2022-12-01T07:34:13.354Z,30.50
2022-12-01T07:36:40.583Z,29.83
2022-12-01T07:39:08.394Z,31.17
2022-12-01T07:41:35.857Z,31.23
2022-12-01T07:44:03.303Z,31.02
2022-12-01T07:46:30.830Z,29.45
2022-12-01T07:48:59.332Z,30.95
2022-12-01T07:51:27.202Z,32.17
2022-12-01T07:53:55.402Z,30.75
2022-12-01T07:56:23.451Z,31.42
2022-12-01T07:58:50.666Z,27.80
2022-12-01T08:01:20.511Z,30.42
2022-12-01T08:03:52.813Z,31.73
2022-12-01T08:06:20.686Z,31.08
2022-12-01T08:08:48.769Z,30.25
2022-12-01T08:11:19.142Z,29.55
2022-12-01T08:13:46.632Z,33.58
2022-12-01T08:16:18.713Z,34.85
2022-12-01T08:18:46.568Z,31.05
2022-12-01T08:21:15.928Z,29.27
2022-12-01T08:23:44.138Z,29.20
2022-12-01T08:26:13.982Z,28.10
2022-12-01T08:28:41.697Z,29.50
2022-12-01T08:31:18.076Z,28.67
2022-12-01T08:33:46.464Z,27.17
2022-12-01T08:36:14.261Z,28.48
2022-12-01T08:38:45.779Z,29.17
2022-12-01T08:41:13.628Z,26.73
2022-12-01T08:44:00.453Z,26.63
2022-12-01T08:46:31.735Z,25.60
2022-12-01T08:48:59.181Z,26.30
2022-12-01T08:51:26.930Z,27.58
2022-12-01T08:53:55.864Z,26.25
2022-12-01T08:56:38.578Z,25.40
2022-12-01T08:59:06.057Z,26.40
2022-12-01T09:01:33.648Z,24.67
2022-12-01T09:04:10.802Z,24.08
2022-12-01T09:06:41.710Z,23.65
2022-12-01T09:09:11.283Z,23.13
2022-12-01T09:11:39.050Z,24.50
2022-12-01T09:14:06.666Z,25.27
2022-12-01T09:16:34.260Z,24.92
2022-12-01T09:19:01.976Z,23.10
2022-12-01T09:21:32.439Z,25.38
2022-12-01T09:24:01.285Z,25.63
2022-12-01T09:26:29.070Z,23.27
2022-12-01T09:29:03.505Z,24.73
2022-12-01T09:31:30.943Z,24.10
2022-12-01T09:34:01.183Z,27.00
2022-12-01T09:36:29.852Z,24.75
2022-12-01T09:38:57.170Z,24.67
2022-12-01T09:41:28.300Z,25.80
2022-12-01T09:44:34.063Z,23.25
2022-12-01T09:47:19.101Z,24.73
2022-12-01T09:50:00.316Z,23.75
2022-12-01T09:52:29.901Z,24.52
2022-12-01T09:54:59.128Z,26.15
2022-12-01T09:57:33.051Z,25.37
2022-12-01T10:00:02.993Z,25.27
2022-12-01T10:02:42.776Z,24.98
2022-12-01T10:05:15.658Z,25.63
2022-12-01T10:07:49.163Z,24.08
2022-12-01T10:10:36.602Z,24.17
2022-12-01T10:13:12.769Z,24.05
2022-12-01T10:15:46.505Z,24.60
2022-12-01T10:18:22.681Z,23.05
2022-12-01T10:21:08.812Z,22.98
2022-12-01T10:23:48.315Z,23.85
2022-12-01T10:26:25.356Z,22.33
2022-12-01T10:29:28.780Z,21.80
2022-12-01T10:32:06.930Z,22.75
2022-12-01T10:34:36.774Z,22.30
2022-12-01T10:37:04.251Z,22.92
2022-12-01T10:39:36.294Z,23.08
2022-12-01T10:42:12.962Z,23.50
2022-12-01T10:44:41.034Z,22.40
2022-12-01T10:47:20.432Z,21.23
2022-12-01T10:49:48.109Z,22.75
2022-12-01T10:52:36.230Z,21.70
2022-12-01T10:55:06.489Z,22.50
2022-12-01T10:57:33.961Z,22.27
2022-12-01T11:00:07.219Z,21.30
2022-12-01T11:02:35.497Z,22.10
2022-12-01T11:05:07.965Z,23.63
2022-12-01T11:07:42.754Z,22.15
2022-12-01T11:10:33.971Z,21.08
2022-12-01T11:13:24.118Z,22.08
2022-12-01T11:18:39.519Z,20.65
2022-12-01T11:21:27.750Z,21.65
2022-12-01T11:23:56.165Z,20.55
2022-12-01T11:26:25.668Z,21.20
2022-12-01T11:29:15.913Z,21.00
2022-12-01T11:31:48.855Z,22.25
2022-12-01T11:34:23.512Z,23.98
2022-12-01T11:36:55.979Z,21.92
2022-12-01T11:39:36.832Z,23.17
2022-12-01T11:42:19.889Z,22.13
2022-12-01T11:44:56.689Z,24.60
2022-12-01T11:47:26.473Z,22.05
2022-12-01T11:50:16.796Z,22.73
2022-12-01T11:52:47.432Z,22.95
2022-12-01T11:55:15.152Z,22.80
2022-12-01T11:57:48.696Z,23.85
2022-12-01T12:00:22.175Z,21.38
2022-12-01T12:03:14.332Z,23.20
2022-12-01T12:09:28.700Z,19.00
2022-12-01T12:12:25.436Z,22.88
2022-12-01T12:15:15.875Z,20.80
2022-12-01T12:18:08.633Z,21.00
2022-12-01T12:20:54.940Z,22.27
2022-12-01T12:23:50.956Z,20.85
2022-12-01T12:26:24.389Z,21.45
2022-12-01T12:29:14.071Z,21.77
2022-12-01T12:31:54.033Z,22.80
2022-12-01T12:34:31.911Z,23.60
2022-12-01T12:37:20.282Z,24.70
2022-12-01T12:39:54.727Z,25.17
2022-12-01T12:42:35.182Z,25.42
2022-12-01T12:45:14.194Z,23.90
2022-12-01T12:47:41.358Z,22.38
2022-12-01T12:50:21.156Z,23.27
2022-12-01T12:53:15.651Z,23.88
2022-12-01T12:55:50.095Z,23.55
2022-12-01T12:58:26.685Z,21.60
2022-12-01T13:00:59.284Z,22.58
2022-12-01T13:03:47.738Z,23.40
2022-12-01T13:06:22.458Z,21.70
2022-12-01T13:08:59.727Z,21.88
2022-12-01T13:11:33.879Z,22.27
2022-12-01T13:14:20.673Z,22.17
2022-12-01T13:16:49.780Z,22.02
2022-12-01T13:19:22.614Z,21.05
2022-12-01T13:21:51.286Z,21.20
2022-12-01T13:24:24.011Z,20.13
2022-12-01T13:27:04.987Z,21.88
2022-12-01T13:29:47.650Z,20.83
2022-12-01T13:32:31.999Z,19.98
2022-12-01T13:35:00.637Z,20.20
2022-12-01T13:37:36.448Z,20.17
2022-12-01T13:40:26.381Z,20.50
2022-12-01T13:43:10.322Z,20.40
2022-12-01T13:45:40.223Z,20.58
2022-12-01T13:48:28.970Z,20.90
2022-12-01T13:51:01.781Z,21.73
2022-12-01T13:53:34.666Z,22.15
2022-12-01T13:56:17.445Z,22.92
2022-12-01T13:58:48.920Z,22.73
2022-12-01T14:01:23.131Z,23.23
2022-12-01T14:04:03.001Z,23.10
2022-12-01T14:06:36.122Z,22.95
2022-12-01T14:09:15.406Z,24.13
2022-12-01T14:11:58.272Z,23.02
2022-12-01T14:14:27.423Z,21.25
2022-12-01T14:16:58.704Z,22.02
2022-12-01T14:19:46.297Z,20.52
2022-12-01T14:22:32.466Z,20.52
2022-12-01T14:25:00.174Z,19.92
2022-12-01T14:27:43.722Z,19.88
2022-12-01T14:30:45.866Z,21.83
2022-12-01T14:33:51.252Z,20.55
2022-12-01T14:36:24.529Z,21.75
2022-12-01T14:39:23.344Z,20.90
2022-12-01T14:41:55.115Z,19.38
2022-12-01T14:44:38.506Z,18.63
2022-12-01T14:47:11.883Z,17.85
2022-12-01T14:50:10.116Z,17.13
2022-12-01T14:52:40.368Z,17.40
2022-12-01T14:57:44.862Z,17.50
2022-12-01T15:00:25.122Z,18.83
2022-12-01T15:02:59.425Z,17.92
2022-12-01T15:05:31.565Z,16.83
2022-12-01T15:08:33.771Z,17.92
2022-12-01T15:10:52.519Z,16.90
2022-12-01T15:13:24.910Z,16.80
2022-12-01T15:16:00.789Z,16.90
2022-12-01T15:18:37.088Z,18.13
2022-12-01T15:21:10.170Z,17.58
2022-12-01T15:23:37.729Z,16.58
2022-12-01T15:26:05.111Z,18.10
2022-12-01T15:28:34.462Z,18.52
2022-12-01T15:31:13.342Z,17.15
2022-12-01T15:33:49.403Z,18.70
2022-12-01T15:36:16.996Z,19.20
2022-12-01T15:38:46.434Z,19.33
2022-12-01T15:41:28.933Z,18.73
2022-12-01T15:43:59.049Z,18.25
2022-12-01T15:46:30.205Z,18.70
2022-12-01T15:49:16.616Z,19.17
2022-12-01T15:51:43.959Z,18.73
2022-12-01T15:54:24.909Z,19.50
2022-12-01T15:56:55.006Z,19.38
2022-12-01T16:02:07.404Z,19.33
2022-12-01T16:04:37.213Z,20.20
2022-12-01T16:07:07.993Z,21.02
2022-12-01T16:09:37.581Z,19.77
2022-12-01T16:12:17.553Z,20.75
2022-12-01T16:17:17.494Z,20.10
2022-12-01T16:19:45.499Z,20.15
2022-12-01T16:22:19.275Z,19.88
2022-12-01T16:24:52.963Z,20.38
2022-12-01T16:27:27.081Z,20.33
2022-12-01T16:29:58.240Z,20.10
2022-12-01T16:32:36.365Z,21.98
2022-12-01T16:35:21.524Z,21.77
2022-12-01T16:37:48.997Z,21.77
2022-12-01T16:40:16.985Z,21.52
2022-12-01T16:42:44.197Z,21.90
2022-12-01T16:45:15.725Z,21.30
2022-12-01T16:47:44.144Z,20.95
2022-12-01T16:50:16.278Z,22.13
2022-12-01T16:52:45.229Z,21.98
2022-12-01T16:55:43.832Z,22.30
2022-12-01T16:58:11.125Z,22.27
2022-12-01T17:00:38.431Z,21.45
2022-12-01T17:03:06.278Z,22.35
2022-12-01T17:05:34.308Z,22.50
2022-12-01T17:08:01.555Z,23.25
2022-12-01T17:10:28.905Z,23.88
2022-12-01T17:12:56.423Z,23.40
2022-12-01T17:15:23.860Z,23.98
2022-12-01T17:17:51.422Z,24.65
2022-12-01T17:20:18.705Z,23.83
2022-12-01T17:22:45.938Z,23.70
2022-12-01T17:25:13.138Z,25.05
2022-12-01T17:27:41.909Z,24.40
2022-12-01T17:30:10.185Z,25.52
2022-12-01T17:32:37.387Z,25.70
2022-12-01T17:35:05.067Z,25.65
2022-12-01T17:37:32.279Z,24.20
2022-12-01T17:40:00.445Z,24.55
2022-12-01T17:42:31.153Z,26.55
2022-12-01T17:44:58.721Z,26.35
2022-12-01T17:47:27.147Z,27.63
2022-12-01T17:49:54.550Z,27.55
2022-12-01T17:52:26.720Z,26.98
2022-12-01T17:54:56.450Z,28.33
2022-12-01T17:57:23.812Z,27.35
2022-12-01T17:59:50.992Z,26.70
2022-12-01T18:02:18.501Z,28.25
2022-12-01T18:04:46.779Z,27.92
2022-12-01T18:07:14.027Z,27.60
2022-12-01T18:09:41.475Z,29.92
2022-12-01T18:12:08.687Z,28.90
2022-12-01T18:14:37.555Z,29.38
2022-12-01T18:17:05.612Z,29.65
2022-12-01T18:19:33.232Z,28.75
2022-12-01T18:22:00.502Z,29.05
2022-12-01T18:24:27.912Z,29.40
2022-12-01T18:26:56.439Z,30.05
2022-12-01T18:29:26.012Z,29.58
2022-12-01T18:31:57.379Z,29.98
2022-12-01T18:34:31.300Z,28.77
2022-12-01T18:36:58.753Z,28.98
2022-12-01T18:39:26.047Z,29.95
2022-12-01T18:41:53.426Z,28.88
2022-12-01T18:44:21.021Z,29.45
2022-12-01T18:46:48.257Z,28.77
2022-12-01T18:49:18.378Z,27.20
2022-12-01T18:54:14.559Z,27.48
2022-12-01T18:56:42.286Z,27.23
2022-12-01T18:59:10.494Z,27.10
2022-12-01T19:01:40.190Z,27.33
2022-12-01T19:04:10.930Z,25.92
2022-12-01T19:06:39.776Z,25.92
2022-12-01T19:09:09.435Z,25.45
2022-12-01T19:11:37.868Z,25.35
2022-12-01T19:14:05.071Z,24.77
2022-12-01T19:16:33.320Z,25.75
2022-12-01T19:19:01.183Z,24.40
2022-12-01T19:21:28.438Z,25.02
2022-12-01T19:23:56.301Z,25.45
2022-12-01T19:26:24.043Z,22.50
2022-12-01T19:28:51.637Z,23.73
2022-12-01T19:31:22.629Z,23.20
2022-12-01T19:33:51.551Z,21.92
2022-12-01T19:36:20.752Z,24.00
2022-12-01T19:38:48.300Z,23.37
2022-12-01T19:41:16.164Z,20.90
2022-12-01T19:43:43.706Z,22.95
2022-12-01T19:46:14.965Z,21.17
2022-12-01T19:48:43.108Z,20.60
2022-12-01T19:51:25.170Z,20.45
2022-12-01T19:53:53.384Z,20.33
2022-12-01T19:56:21.134Z,21.52
2022-12-01T19:58:48.367Z,21.27
2022-12-01T20:01:17.003Z,20.08
2022-12-01T20:03:49.849Z,20.80
2022-12-01T20:06:22.684Z,20.80
2022-12-01T20:08:50.581Z,21.30
2022-12-01T20:11:18.180Z,21.08
2022-12-01T20:13:46.839Z,21.02
2022-12-01T20:16:17.152Z,21.00
2022-12-01T20:18:44.862Z,22.80
2022-12-01T20:21:18.959Z,20.60
2022-12-01T20:23:48.376Z,21.25
2022-12-01T20:26:17.482Z,21.23
2022-12-01T20:28:46.551Z,21.63
2022-12-01T20:31:22.967Z,21.48
2022-12-01T20:33:52.736Z,22.00
2022-12-01T20:36:20.076Z,21.83
2022-12-01T20:38:47.635Z,20.92
2022-12-01T20:41:15.212Z,21.02
2022-12-01T20:43:42.731Z,20.92
2022-12-01T20:46:11.464Z,21.48
2022-12-01T20:48:38.892Z,21.30
2022-12-01T20:51:07.516Z,20.35
2022-12-01T20:53:35.773Z,20.13
2022-12-01T20:56:08.675Z,19.55
2022-12-01T20:58:37.947Z,19.67
2022-12-01T21:01:18.682Z,19.00
2022-12-01T21:03:46.398Z,19.25
2022-12-01T21:06:15.025Z,19.75
2022-12-01T21:08:43.886Z,19.00
2022-12-01T21:11:52.684Z,19.67
2022-12-01T21:14:41.580Z,18.40
2022-12-01T21:17:32.399Z,17.85
2022-12-01T21:20:12.931Z,18.73
2022-12-01T21:22:40.236Z,16.63
2022-12-01T21:25:15.743Z,13.93
2022-12-01T21:27:42.913Z,14.68
2022-12-01T21:30:22.028Z,15.25
2022-12-01T21:32:49.597Z,15.27
2022-12-01T21:35:25.074Z,14.07
2022-12-01T21:38:04.626Z,14.25
2022-12-01T21:40:31.918Z,14.40
2022-12-01T21:43:01.807Z,14.23
2022-12-01T21:45:32.031Z,14.98
2022-12-01T21:48:20.037Z,14.10
2022-12-01T21:50:52.409Z,14.88
2022-12-01T21:53:21.666Z,15.90
2022-12-01T21:55:49.321Z,16.92
2022-12-01T21:58:24.551Z,17.35
2022-12-01T22:00:52.943Z,16.63
2022-12-01T22:03:39.782Z,16.92
2022-12-01T22:11:30.429Z,18.08
2022-12-01T22:14:19.154Z,18.70
2022-12-01T22:17:01.529Z,17.23
2022-12-01T22:19:31.412Z,18.13
2022-12-01T22:22:03.076Z,17.95
2022-12-01T22:24:39.887Z,17.33
2022-12-01T22:27:28.476Z,16.67
2022-12-01T22:29:58.930Z,16.55
2022-12-01T22:32:35.383Z,16.75
2022-12-01T22:35:26.224Z,16.52
2022-12-01T22:37:57.398Z,17.38
2022-12-01T22:40:54.936Z,16.95
2022-12-01T22:43:30.484Z,16.60
2022-12-01T22:46:07.380Z,16.70
2022-12-01T22:48:40.053Z,16.98
2022-12-01T22:51:13.763Z,17.52
2022-12-01T22:53:42.930Z,16.45
2022-12-01T22:56:38.109Z,17.13
2022-12-01T22:59:28.010Z,17.33
2022-12-01T23:01:57.499Z,16.63
2022-12-01T23:04:28.630Z,18.58
2022-12-01T23:07:00.902Z,17.17
2022-12-01T23:09:32.637Z,16.48
2022-12-01T23:12:22.190Z,16.88
2022-12-01T23:14:52.979Z,17.60
2022-12-01T23:17:20.351Z,18.55
2022-12-01T23:19:49.122Z,18.38
2022-12-01T23:22:16.818Z,17.92
2022-12-01T23:24:44.106Z,17.75
2022-12-01T23:27:11.491Z,18.42
2022-12-01T23:29:38.678Z,19.35
2022-12-01T23:32:06.174Z,21.08
2022-12-01T23:34:33.881Z,21.38
2022-12-01T23:37:01.087Z,20.75
2022-12-01T23:39:35.443Z,19.38
2022-12-01T23:42:03.226Z,21.63
2022-12-01T23:44:38.871Z,22.15
2022-12-01T23:47:22.628Z,21.67
2022-12-01T23:49:58.100Z,22.25
2022-12-01T23:52:32.687Z,22.95
2022-12-01T23:55:00.112Z,22.35
2022-12-01T23:57:27.490Z,23.95
2022-12-01T23:59:58.924Z,23.77
